< < Back
Terminal Aerodrome Forecast


Current Version              Previous Versions:   1  2  3  4  5  6  7  8  9  

Terminal Aerodrome Forecast

452
FTUS42 KILM 091105 AAA
TAFFLO
TAF AMD
KFLO 091105Z 0911/1006 27010G15KT P6SM SCT070
     FM091300 26015G25KT P6SM SCT050 BKN080
     FM091700 26019G28KT P6SM OVC050
     FM100100 26010G15KT P6SM OVC060=



Latest METAR

383
SAUS70 KWBC 092000 RRK
MTRFLO
METAR KFLO 091953Z 27017G25KT 10SM BKN049 OVC060 05/M04 A2973 RMK AO2 PK
WND 26026/1854 SLP066 T00501044


USA.gov is the U.S. government's official web portal to all federal, state and local government web resources and services.